M I D A S
Marine Information and Data Acquisition System
Tripno 946 of the Zeeleeuw from 2005-07-14 07:46:47 to 2005-07-14 12:55:17
Back to CruiseResearch ActivitiesStationsMapUnderway DataData graphs

EquipmentUnitsComment
TimeDGPSUTC
LatitudeDGPSDM.mWGS84
LongitudeDGPSDM.mWGS84
HeadingGyrodeg 
SOGDGPSknotsSpeed over ground
COGDGPSdegCourse over ground
DepthEcho soundermeters200 kHz
Missing or incorrect values are displayed as -999
Navigation data collected by the RV Zeeleeuw from 2005-07-14 07:48:16 to 2005-07-14 13:05:42
                                                                                    Next 1000 lines
Time Latitude Longitude Heading SOG COG Depth
2005-07-14 07:48:28 51°13.598 2°56.105 114.5 0.7 288 7.5
2005-07-14 07:48:32 51°13.599 2°56.103 114.1 1.1 292 7.5
2005-07-14 07:48:37 51°13.599 2°56.1 114 1.1 292 7.5
2005-07-14 07:48:42 51°13.6 2°56.096 114 1.5 290 7.5
2005-07-14 07:48:47 51°13.601 2°56.092 114.6 1.5 290 7.1
2005-07-14 07:48:53 51°13.603 2°56.087 115.4 2.1 295 -999
2005-07-14 07:48:58 51°13.605 2°56.082 116.1 2.2 295 -999
2005-07-14 07:49:02 51°13.606 2°56.078 116.4 2.2 295 -999
2005-07-14 07:49:08 51°13.608 2°56.071 116.4 2.2 295 -999
2005-07-14 07:49:12 51°13.609 2°56.066 116.2 2.9 295 -999
2005-07-14 07:49:18 51°13.611 2°56.06 116.1 2.9 295 -999
2005-07-14 07:49:23 51°13.613 2°56.053 116 3 295 -999
2005-07-14 07:49:28 51°13.615 2°56.048 115.9 3.1 294 -999
2005-07-14 07:49:33 51°13.617 2°56.04 115.7 3.2 294 -999
2005-07-14 07:49:38 51°13.619 2°56.034 115.7 3.2 294 -999
2005-07-14 07:49:42 51°13.62 2°56.027 115.7 3.4 293 -999
2005-07-14 07:49:47 51°13.622 2°56.021 115.9 3.5 293 -999
2005-07-14 07:49:52 51°13.624 2°56.013 116.6 3.5 293 -999
2005-07-14 07:49:58 51°13.626 2°56.005 117.5 3.6 294 -999
2005-07-14 07:50:02 51°13.628 2°55.998 118.4 3.7 294 -999
2005-07-14 07:50:08 51°13.631 2°55.99 119.6 3.9 295 -999
2005-07-14 07:50:12 51°13.633 2°55.982 120.3 3.9 295 -999
2005-07-14 07:50:18 51°13.636 2°55.974 121.3 4.1 297 6.4
2005-07-14 07:50:22 51°13.639 2°55.966 122.2 4.2 298 -999
2005-07-14 07:50:28 51°13.642 2°55.958 122.9 4.2 298 -999
2005-07-14 07:50:32 51°13.645 2°55.95 123.3 4.3 300 -999
2005-07-14 07:50:38 51°13.648 2°55.941 123.4 4.3 300 -999
2005-07-14 07:50:43 51°13.651 2°55.932 123.7 4.3 300 -999
2005-07-14 07:50:47 51°13.653 2°55.926 123.8 4.3 300 -999
2005-07-14 07:50:52 51°13.657 2°55.917 123.8 4.4 301 -999
2005-07-14 07:50:58 51°13.66 2°55.909 123.7 4.4 301 6.4
2005-07-14 07:51:02 51°13.663 2°55.901 123.3 4.4 301 -999
2005-07-14 07:51:08 51°13.666 2°55.892 122.8 4.3 301 -999
2005-07-14 07:51:12 51°13.669 2°55.884 122 4.3 301 6.4
2005-07-14 07:51:18 51°13.672 2°55.877 121.2 4.1 300 -999
2005-07-14 07:51:23 51°13.675 2°55.868 120.1 4.1 300 -999
2005-07-14 07:51:28 51°13.677 2°55.86 119 4 298 -999
2005-07-14 07:51:32 51°13.68 2°55.854 117.8 3.9 297 -999
2005-07-14 07:51:38 51°13.682 2°55.845 116.3 3.8 296 -999
2005-07-14 07:51:43 51°13.684 2°55.838 114.9 3.8 296 -999
2005-07-14 07:51:48 51°13.686 2°55.83 113.8 3.8 294 -999
2005-07-14 07:51:52 51°13.688 2°55.823 111.8 3.8 292 -999
2005-07-14 07:51:56 51°13.689 2°55.817 110.3 3.7 291 -999
2005-07-14 07:52:03 51°13.692 2°55.806 108.7 3.8 290 -999
2005-07-14 07:52:08 51°13.693 2°55.799 106.9 3.7 287 6.4
2005-07-14 07:52:13 51°13.695 2°55.791 105.2 3.7 287 -999
2005-07-14 07:52:18 51°13.696 2°55.784 103.7 3.5 285 -999
2005-07-14 07:52:23 51°13.697 2°55.777 102.7 3.5 285 -999
2005-07-14 07:52:28 51°13.698 2°55.77 101.6 3.5 285 -999
2005-07-14 07:52:32 51°13.698 2°55.765 100.8 3 284 -999
2005-07-14 07:52:38 51°13.699 2°55.76 99.3 3 284 13.7
2005-07-14 07:52:42 51°13.7 2°55.757 97.4 1.9 283 13.6
2005-07-14 07:52:48 51°13.7 2°55.754 95.4 1.9 283 13.6
2005-07-14 07:52:52 51°13.701 2°55.754 92.6 1 290 13.5
2005-07-14 07:52:56 51°13.701 2°55.753 89.2 0.5 325 13.4
2005-07-14 07:53:02 51°13.702 2°55.754 84.7 0.5 33 13.4
2005-07-14 07:53:07 51°13.703 2°55.755 79.3 0.7 46 13.5
2005-07-14 07:53:12 51°13.703 2°55.756 73.5 0.6 34 13.5
2005-07-14 07:53:16 51°13.704 2°55.756 69.2 0.6 34 13.5
2005-07-14 07:53:22 51°13.704 2°55.755 65.6 0.3 323 13.6
2005-07-14 07:53:27 51°13.704 2°55.754 62.4 0.3 284 13.6
2005-07-14 07:53:32 51°13.704 2°55.753 59.2 0.6 259 13.6
2005-07-14 07:53:36 51°13.703 2°55.752 56.8 0.6 259 13.6
2005-07-14 07:53:42 51°13.702 2°55.749 55.1 0.6 259 13.6
2005-07-14 07:53:47 51°13.701 2°55.747 52.8 1.1 241 13.6
2005-07-14 07:53:52 51°13.701 2°55.745 51.5 1.1 239 13.6
2005-07-14 07:53:57 51°13.7 2°55.743 50 1.1 239 13.8
2005-07-14 07:54:02 51°13.7 2°55.743 48.9 1.1 239 -999
2005-07-14 07:54:07 51°13.701 2°55.743 46 0.4 2 5
2005-07-14 07:54:12 51°13.703 2°55.744 42 0.8 12 5.3
2005-07-14 07:54:18 51°13.705 2°55.745 35.8 1.4 19 13.6
2005-07-14 07:54:22 51°13.708 2°55.745 28.8 1.6 16 13.7
2005-07-14 07:54:27 51°13.711 2°55.746 21.1 2.2 10 13.7
2005-07-14 07:54:31 51°13.715 2°55.746 13.5 2.8 -999 13.5
2005-07-14 07:54:36 51°13.719 2°55.744 4.1 2.8 -999 13.3
2005-07-14 07:54:42 51°13.724 2°55.742 356.1 3.2 348 12.6
2005-07-14 07:54:47 51°13.729 2°55.739 349.7 3.6 342 11.9
2005-07-14 07:54:52 51°13.735 2°55.734 342.2 3.6 342 11.3
2005-07-14 07:54:57 51°13.739 2°55.731 336.1 3.6 342 11.1
2005-07-14 07:55:02 51°13.745 2°55.725 332.7 4.2 329 10.5
2005-07-14 07:55:07 51°13.75 2°55.72 330.6 4.6 327 10.4
2005-07-14 07:55:12 51°13.755 2°55.714 329.2 5.1 326 10.3
2005-07-14 07:55:16 51°13.761 2°55.707 328.5 5.1 326 10.4
2005-07-14 07:55:22 51°13.77 2°55.698 328.1 5.1 326 10.3
2005-07-14 07:55:27 51°13.776 2°55.69 328 6.1 324 10.4
2005-07-14 07:55:32 51°13.784 2°55.681 327.9 4.8 324 10.4
2005-07-14 07:55:37 51°13.791 2°55.673 328 6.7 325 10.5
2005-07-14 07:55:42 51°13.799 2°55.664 328.7 6.7 325 10.5
2005-07-14 07:55:47 51°13.808 2°55.655 329.6 7.2 328 11.3
2005-07-14 07:55:52 51°13.817 2°55.646 330.8 7.3 328 11.1
2005-07-14 07:55:56 51°13.824 2°55.639 332.1 7.4 328 11.5
2005-07-14 07:56:02 51°13.836 2°55.629 333.1 7.4 328 11.1
2005-07-14 07:56:07 51°13.844 2°55.621 334.5 7.4 328 11.4
2005-07-14 07:56:12 51°13.855 2°55.612 335.4 7.9 331 11.5
2005-07-14 07:56:17 51°13.864 2°55.604 335.7 8 331 11.2
2005-07-14 07:56:22 51°13.875 2°55.595 336.2 8 331 11.1
2005-07-14 07:56:28 51°13.885 2°55.587 336.7 8.1 332 11
2005-07-14 07:56:32 51°13.894 2°55.58 337.5 8.2 334 11.1
2005-07-14 07:56:38 51°13.906 2°55.57 338.3 8.2 334 11.3
2005-07-14 07:56:42 51°13.916 2°55.562 338.6 8.2 334 10.9
2005-07-14 07:56:47 51°13.926 2°55.556 338.5 8.2 334 11.9
2005-07-14 07:56:52 51°13.936 2°55.549 339.2 8.2 334 11.7
2005-07-14 07:56:57 51°13.948 2°55.541 340.2 8.5 336 11.9
2005-07-14 07:57:02 51°13.959 2°55.534 340.6 8.5 337 11.7
2005-07-14 07:57:07 51°13.969 2°55.526 340.9 8.5 337 11.5
2005-07-14 07:57:12 51°13.979 2°55.52 341.3 8.6 338 11.8
2005-07-14 07:57:16 51°13.991 2°55.513 342.1 8.6 338 11.9
2005-07-14 07:57:22 51°14.004 2°55.505 342.4 8.6 338 12
2005-07-14 07:57:27 51°14.014 2°55.498 342.1 8.6 338 11.7
2005-07-14 07:57:32 51°14.024 2°55.492 341.9 8.6 339 11.4
2005-07-14 07:57:36 51°14.035 2°55.485 342.5 8.7 338 11.6
2005-07-14 07:57:42 51°14.048 2°55.476 342.5 8.6 339 11.2
2005-07-14 07:57:48 51°14.059 2°55.469 342.1 8.6 339 11.4
2005-07-14 07:57:51 51°14.067 2°55.464 341.8 8.7 338 11.3
2005-07-14 07:57:58 51°14.082 2°55.454 341.7 8.7 338 11.3
2005-07-14 07:58:00 51°14.088 2°55.449 341.3 8.7 338 11.1
2005-07-14 07:58:07 51°14.103 2°55.44 341.3 8.7 337 11
2005-07-14 07:58:12 51°14.115 2°55.432 341.3 8.7 338 11.1
2005-07-14 07:58:16 51°14.124 2°55.425 341.1 8.7 337 11.1
2005-07-14 07:58:22 51°14.137 2°55.415 340.3 8.7 336 11.3
2005-07-14 07:58:27 51°14.146 2°55.407 339.4 8.7 336 11.4
2005-07-14 07:58:32 51°14.158 2°55.397 338 8.7 336 11.5
2005-07-14 07:58:38 51°14.168 2°55.387 335.9 8.7 331 11.7
2005-07-14 07:58:42 51°14.177 2°55.378 334.2 8.7 331 11.5
2005-07-14 07:58:47 51°14.187 2°55.367 332.6 8.7 331 11.5
2005-07-14 07:58:52 51°14.198 2°55.355 330.9 8.7 327 11.7
2005-07-14 07:58:56 51°14.206 2°55.346 329.3 8.7 327 11.6
2005-07-14 07:59:02 51°14.217 2°55.332 328 8.8 324 11.7
2005-07-14 07:59:08 51°14.227 2°55.319 327.1 8.8 322 11.8
2005-07-14 07:59:11 51°14.233 2°55.311 325.8 8.8 320 11.8
2005-07-14 07:59:16 51°14.244 2°55.296 324.6 8.8 320 11.9
2005-07-14 07:59:22 51°14.254 2°55.28 323 8.9 317 11.5
2005-07-14 07:59:27 51°14.262 2°55.267 321.1 9 316 11.5
2005-07-14 07:59:32 51°14.271 2°55.253 319.7 9 316 11.7
2005-07-14 07:59:37 51°14.28 2°55.237 318 9 316 11.6
2005-07-14 07:59:42 51°14.289 2°55.219 316 9 316 11.4
2005-07-14 07:59:47 51°14.297 2°55.203 314.2 9.8 309 11.6
2005-07-14 07:59:52 51°14.306 2°55.186 313.2 9.8 309 11.6
2005-07-14 07:59:56 51°14.313 2°55.169 312 10.2 307 11.3
2005-07-14 08:00:02 51°14.322 2°55.148 310.7 10.4 305 11.3
2005-07-14 08:00:07 51°14.331 2°55.129 309.8 10.4 305 11.3
2005-07-14 08:00:11 51°14.337 2°55.113 309 10.7 303 11.2
2005-07-14 08:00:16 51°14.346 2°55.092 308 10.7 303 11.2
2005-07-14 08:00:22 51°14.355 2°55.069 307.4 10.8 302 11.3
2005-07-14 08:00:27 51°14.363 2°55.048 306.3 10.8 302 11.2
2005-07-14 08:00:32 51°14.371 2°55.025 305.3 11 300 11.1
2005-07-14 08:00:36 51°14.377 2°55.008 304.6 11 299 10.9
2005-07-14 08:00:42 51°14.385 2°54.981 303.7 11.2 297 10.9
2005-07-14 08:00:47 51°14.392 2°54.961 302.9 11.4 297 11
2005-07-14 08:00:51 51°14.397 2°54.942 301.3 11.5 293 11.1
2005-07-14 08:00:56 51°14.403 2°54.916 298.6 11.5 292 11.2
2005-07-14 08:01:02 51°14.408 2°54.888 295.6 11.7 288 11.2
2005-07-14 08:01:08 51°14.413 2°54.861 292.3 11.7 288 11.2
2005-07-14 08:01:12 51°14.417 2°54.835 289.1 11.8 284 11.2
2005-07-14 08:01:18 51°14.42 2°54.81 287.7 11.8 284 11.2
2005-07-14 08:01:22 51°14.424 2°54.784 287.4 12 283 11.2
2005-07-14 08:01:28 51°14.427 2°54.757 287.3 12 283 11.4
2005-07-14 08:01:31 51°14.428 2°54.739 285.2 12 278 11.2
2005-07-14 08:01:38 51°14.429 2°54.704 281.8 12 276 11.2
2005-07-14 08:01:42 51°14.429 2°54.678 277.7 12 271 11.2
2005-07-14 08:01:47 51°14.428 2°54.654 273.4 12 269 11.2
2005-07-14 08:01:51 51°14.428 2°54.633 270.5 12.1 267 11.2
2005-07-14 08:01:58 51°14.427 2°54.598 270 12.1 267 11.1
2005-07-14 08:02:02 51°14.425 2°54.574 269.5 12.1 267 11.2
2005-07-14 08:02:07 51°14.424 2°54.547 268.9 12.2 266 11.1
2005-07-14 08:02:12 51°14.423 2°54.522 268.5 12.2 265 11
2005-07-14 08:02:16 51°14.421 2°54.496 268.1 12.2 265 11
2005-07-14 08:02:22 51°14.419 2°54.466 268 12.2 264 10.9
2005-07-14 08:02:28 51°14.416 2°54.437 266.7 12.2 262 10.8
2005-07-14 08:02:32 51°14.413 2°54.41 264.3 12.2 260 10.7
2005-07-14 08:02:36 51°14.41 2°54.389 262.1 12.2 260 10.5
2005-07-14 08:02:42 51°14.406 2°54.36 260.6 12.3 257 10.4
2005-07-14 08:02:47 51°14.402 2°54.333 259.6 12.3 257 10.5
2005-07-14 08:02:52 51°14.397 2°54.31 257.9 12.3 254 10.4
2005-07-14 08:02:57 51°14.391 2°54.282 256 12.3 254 10.4
2005-07-14 08:03:02 51°14.386 2°54.256 254.4 12.3 254 10.4
2005-07-14 08:03:08 51°14.379 2°54.228 253.3 12.2 250 10.4
2005-07-14 08:03:12 51°14.374 2°54.206 251.9 12.1 249 10.3
2005-07-14 08:03:17 51°14.368 2°54.181 251 12.1 248 10.4
2005-07-14 08:03:22 51°14.361 2°54.154 250.8 12.1 248 10.4
2005-07-14 08:03:28 51°14.355 2°54.129 250.6 12.1 248 10.4
2005-07-14 08:03:32 51°14.348 2°54.105 250.6 12.1 248 10.3
2005-07-14 08:03:37 51°14.342 2°54.084 249.9 11.9 246 10.3
2005-07-14 08:03:42 51°14.334 2°54.058 247.8 11.9 246 10.3
2005-07-14 08:03:47 51°14.327 2°54.037 246.6 11.9 246 10.3
2005-07-14 08:03:51 51°14.321 2°54.018 245.5 11.9 242 10.3
2005-07-14 08:03:56 51°14.313 2°53.992 244.8 11.9 242 10.4
2005-07-14 08:04:02 51°14.304 2°53.967 244.8 11.9 243 10.3
2005-07-14 08:04:07 51°14.297 2°53.943 244.6 11.9 243 10.3
2005-07-14 08:04:12 51°14.288 2°53.918 244.8 11.9 243 10.4
2005-07-14 08:04:16 51°14.282 2°53.899 244.9 11.9 243 10.3
2005-07-14 08:04:22 51°14.273 2°53.871 245 11.9 242 10.3
2005-07-14 08:04:28 51°14.265 2°53.847 244.7 11.9 243 10.3
2005-07-14 08:04:32 51°14.258 2°53.824 244.8 11.9 243 10.3
2005-07-14 08:04:37 51°14.251 2°53.803 244.5 11.9 243 10.3
2005-07-14 08:04:42 51°14.243 2°53.78 244.6 11.9 243 10.3
2005-07-14 08:04:48 51°14.235 2°53.754 244 11.9 243 10.3
2005-07-14 08:04:52 51°14.228 2°53.733 244.6 11.9 242 10.4
2005-07-14 08:04:57 51°14.22 2°53.709 244.6 12 243 10.4
2005-07-14 08:05:02 51°14.213 2°53.688 244.6 12 243 10.4
2005-07-14 08:05:07 51°14.205 2°53.662 244.8 12 243 10.4
2005-07-14 08:05:12 51°14.197 2°53.637 244.7 12 243 10.4
2005-07-14 08:05:16 51°14.19 2°53.618 244.7 12 242 10.4
2005-07-14 08:05:22 51°14.181 2°53.591 244.5 12 242 10.4
2005-07-14 08:05:28 51°14.172 2°53.567 243.8 11.9 241 10.4
2005-07-14 08:05:32 51°14.165 2°53.547 243 12 240 10.4
2005-07-14 08:05:37 51°14.156 2°53.523 242.6 12.1 240 10.5
2005-07-14 08:05:42 51°14.147 2°53.498 242.2 12.1 240 10.5
2005-07-14 08:05:48 51°14.138 2°53.473 242 12.4 240 10.5
2005-07-14 08:05:52 51°14.13 2°53.451 242.3 12.6 240 10.5
2005-07-14 08:05:57 51°14.121 2°53.427 243 12.8 240 10.5
2005-07-14 08:06:02 51°14.111 2°53.4 242.5 12.9 240 10.5
2005-07-14 08:06:07 51°14.103 2°53.377 242.9 12.9 240 10.5
2005-07-14 08:06:12 51°14.095 2°53.354 243.1 13.1 240 10.5
2005-07-14 08:06:16 51°14.086 2°53.329 243.2 13.1 241 10.6
2005-07-14 08:06:22 51°14.076 2°53.302 243.1 13.1 240 10.6
2005-07-14 08:06:27 51°14.067 2°53.276 242.7 13.2 241 10.6
2005-07-14 08:06:32 51°14.057 2°53.249 242.7 13.2 240 10.6
2005-07-14 08:06:37 51°14.049 2°53.226 243 13.2 240 10.6
2005-07-14 08:06:42 51°14.039 2°53.198 243.2 13.2 240 10.7
2005-07-14 08:06:48 51°14.03 2°53.171 243.1 13.3 242 10.7
2005-07-14 08:06:51 51°14.024 2°53.154 243.8 13.2 240 10.7
2005-07-14 08:06:56 51°14.014 2°53.126 243.9 13.2 240 10.7
2005-07-14 08:07:02 51°14.003 2°53.095 243.7 13.3 240 10.8
2005-07-14 08:07:07 51°13.995 2°53.072 243.3 13.3 240 10.8
2005-07-14 08:07:12 51°13.984 2°53.045 242 13.3 238 10.8
2005-07-14 08:07:16 51°13.977 2°53.025 241.6 13.3 239 10.9
2005-07-14 08:07:22 51°13.966 2°52.997 241.4 13.3 238 10.9
2005-07-14 08:07:28 51°13.955 2°52.969 240.8 13.4 239 10.9
2005-07-14 08:07:32 51°13.946 2°52.944 241 13.3 239 11
2005-07-14 08:07:38 51°13.936 2°52.919 241.4 13.3 239 11
2005-07-14 08:07:42 51°13.927 2°52.896 241.3 13.3 239 11
2005-07-14 08:07:47 51°13.918 2°52.871 241.2 13.3 239 10.9
2005-07-14 08:07:52 51°13.907 2°52.844 241 13.3 239 11
2005-07-14 08:07:58 51°13.897 2°52.819 240.9 13.3 238 11
2005-07-14 08:08:01 51°13.89 2°52.802 240.9 13.3 239 11
2005-07-14 08:08:08 51°13.878 2°52.769 240.8 13.4 239 11
2005-07-14 08:08:12 51°13.869 2°52.746 241.4 13.4 239 11
2005-07-14 08:08:17 51°13.86 2°52.721 241.4 13.4 239 11
2005-07-14 08:08:22 51°13.849 2°52.693 241.3 13.4 239 11
2005-07-14 08:08:27 51°13.841 2°52.671 241.3 13.4 239 11
2005-07-14 08:08:32 51°13.83 2°52.643 241.5 13.4 239 11
2005-07-14 08:08:37 51°13.822 2°52.62 241.6 13.3 239 11
2005-07-14 08:08:42 51°13.811 2°52.592 241.6 13.3 239 11
2005-07-14 08:08:47 51°13.803 2°52.569 241.6 13.4 239 11.1
2005-07-14 08:08:52 51°13.793 2°52.544 241.6 13.4 239 11
2005-07-14 08:08:56 51°13.785 2°52.521 241.9 13.3 240 11
2005-07-14 08:09:02 51°13.774 2°52.493 241.7 13.5 239 11.1
2005-07-14 08:09:07 51°13.765 2°52.468 241.7 13.4 240 11.1
2005-07-14 08:09:12 51°13.754 2°52.44 242.1 13.4 240 11.1
2005-07-14 08:09:17 51°13.746 2°52.417 241.6 13.4 239 11.1
2005-07-14 08:09:22 51°13.736 2°52.392 241.5 13.4 239 11.1
2005-07-14 08:09:27 51°13.726 2°52.367 241.5 13.4 239 11.2
2005-07-14 08:09:32 51°13.716 2°52.339 241.3 13.4 238 11.2
2005-07-14 08:09:37 51°13.707 2°52.316 241.2 13.5 239 11.2
2005-07-14 08:09:42 51°13.696 2°52.288 241.6 13.4 239 11.1
2005-07-14 08:09:48 51°13.687 2°52.262 241.9 13.4 239 11.2
2005-07-14 08:09:52 51°13.677 2°52.237 241.9 13.4 239 11.2
2005-07-14 08:09:57 51°13.669 2°52.215 241.9 13.4 239 11.2
2005-07-14 08:10:02 51°13.659 2°52.189 241.9 13.4 239 11.2
2005-07-14 08:10:07 51°13.65 2°52.164 242 13.4 239 11.2
2005-07-14 08:10:12 51°13.64 2°52.138 241.8 13.4 239 11.2
2005-07-14 08:10:17 51°13.631 2°52.113 241.8 13.4 240 11.2
2005-07-14 08:10:22 51°13.621 2°52.088 242.3 13.3 239 11.2
2005-07-14 08:10:27 51°13.612 2°52.062 242 13.3 240 11.2
2005-07-14 08:10:32 51°13.604 2°52.039 242.2 13.4 239 11.2
2005-07-14 08:10:36 51°13.594 2°52.014 242.2 13.4 240 11.2
2005-07-14 08:10:42 51°13.583 2°51.984 242.2 13.3 239 11.3
2005-07-14 08:10:48 51°13.573 2°51.958 241.6 13.3 239 11.3
2005-07-14 08:10:52 51°13.564 2°51.933 241.8 13.3 239 11.3
2005-07-14 08:10:56 51°13.556 2°51.913 241.6 13.4 239 11.3
2005-07-14 08:11:02 51°13.544 2°51.882 241.5 13.4 238 11.3
2005-07-14 08:11:07 51°13.536 2°51.86 241.4 13.4 239 11.3
2005-07-14 08:11:12 51°13.527 2°51.837 241.3 13.4 239 11.3
2005-07-14 08:11:16 51°13.519 2°51.814 241.9 13.4 240 11.3
2005-07-14 08:11:22 51°13.506 2°51.781 242 13.4 239 11.3
2005-07-14 08:11:27 51°13.497 2°51.758 241.9 13.4 240 11.3
2005-07-14 08:11:32 51°13.487 2°51.73 241.6 13.4 238 11.3
2005-07-14 08:11:36 51°13.479 2°51.71 241.5 13.4 239 11.3
2005-07-14 08:11:42 51°13.469 2°51.682 242.1 13.4 239 11.3
2005-07-14 08:11:48 51°13.458 2°51.653 241.7 13.4 239 11.3
2005-07-14 08:11:51 51°13.452 2°51.636 242.2 13.4 240 11.3
2005-07-14 08:11:56 51°13.441 2°51.608 242 13.4 239 11.4
2005-07-14 08:12:02 51°13.432 2°51.582 242.1 13.4 239 11.3
2005-07-14 08:12:08 51°13.421 2°51.551 242.1 13.4 239 11.4
2005-07-14 08:12:12 51°13.411 2°51.527 242.1 13.4 239 11.4
2005-07-14 08:12:16 51°13.403 2°51.506 241.7 13.3 238 11.4
2005-07-14 08:12:22 51°13.393 2°51.478 241.6 13.4 239 11.4
2005-07-14 08:12:27 51°13.383 2°51.453 241.7 13.4 239 11.4
2005-07-14 08:12:32 51°13.373 2°51.425 242.1 13.4 239 11.3
2005-07-14 08:12:37 51°13.365 2°51.402 242.2 13.4 239 11.3
2005-07-14 08:12:42 51°13.355 2°51.377 242 13.4 239 11.3
2005-07-14 08:12:47 51°13.345 2°51.351 241.6 13.4 239 11.3
2005-07-14 08:12:52 51°13.336 2°51.326 241.3 13.4 239 11.4
2005-07-14 08:12:58 51°13.325 2°51.298 241.5 13.4 239 11.4
2005-07-14 08:13:02 51°13.316 2°51.273 241.5 13.4 240 11.4
2005-07-14 08:13:08 51°13.306 2°51.247 241.9 13.4 239 11.4
2005-07-14 08:13:12 51°13.297 2°51.222 242.4 13.3 240 11.4
2005-07-14 08:13:17 51°13.289 2°51.199 242.4 13.3 240 11.4
2005-07-14 08:13:22 51°13.278 2°51.171 242.5 13.3 240 11.4
2005-07-14 08:13:28 51°13.269 2°51.144 242.5 13.3 240 11.5
2005-07-14 08:13:32 51°13.26 2°51.119 242.5 13.3 240 11.5
2005-07-14 08:13:37 51°13.252 2°51.096 242.3 13.4 239 11.5
2005-07-14 08:13:42 51°13.241 2°51.069 242.1 13.4 239 11.5
2005-07-14 08:13:48 51°13.232 2°51.043 241.8 13.4 239 11.5
2005-07-14 08:13:52 51°13.222 2°51.018 242 13.4 240 11.5
2005-07-14 08:13:56 51°13.215 2°50.997 241.9 13.4 240 11.5
2005-07-14 08:14:02 51°13.203 2°50.967 242.5 13.4 240 11.6
2005-07-14 08:14:08 51°13.194 2°50.941 242.4 13.4 240 11.6
2005-07-14 08:14:12 51°13.185 2°50.918 242.3 13.4 240 11.5
2005-07-14 08:14:16 51°13.177 2°50.895 242.4 13.4 240 11.6
2005-07-14 08:14:22 51°13.166 2°50.867 242.5 13.4 239 11.5
2005-07-14 08:14:27 51°13.157 2°50.842 242.4 13.4 240 11.6
2005-07-14 08:14:32 51°13.147 2°50.814 242.4 13.4 239 11.6
2005-07-14 08:14:37 51°13.138 2°50.791 241.8 13.4 239 11.6
2005-07-14 08:14:42 51°13.128 2°50.766 241.5 13.4 239 11.6
2005-07-14 08:14:48 51°13.118 2°50.738 241.8 13.4 239 11.6
2005-07-14 08:14:52 51°13.109 2°50.712 241.9 13.5 239 11.6
2005-07-14 08:14:56 51°13.101 2°50.692 242.4 13.4 240 11.6
2005-07-14 08:15:02 51°13.09 2°50.661 242.4 13.5 239 11.6
2005-07-14 08:15:08 51°13.08 2°50.635 242.3 13.5 239 11.6
2005-07-14 08:15:12 51°13.073 2°50.615 242.1 13.5 239 11.6
2005-07-14 08:15:17 51°13.062 2°50.587 242.1 13.5 239 11.6
2005-07-14 08:15:22 51°13.052 2°50.559 241.7 13.5 239 11.7
2005-07-14 08:15:27 51°13.043 2°50.535 242 13.5 240 11.7
2005-07-14 08:15:32 51°13.032 2°50.507 242.4 13.5 240 11.7
2005-07-14 08:15:38 51°13.023 2°50.481 242.7 13.5 240 11.7
2005-07-14 08:15:42 51°13.014 2°50.456 243 13.5 240 11.6
2005-07-14 08:15:48 51°13.004 2°50.43 242.9 13.5 239 11.7
2005-07-14 08:15:52 51°12.995 2°50.404 242.7 13.5 240 11.6
2005-07-14 08:15:57 51°12.986 2°50.381 242.4 13.5 239 11.7
2005-07-14 08:16:02 51°12.977 2°50.356 242.2 13.5 239 11.6
2005-07-14 08:16:07 51°12.967 2°50.33 242.2 13.5 239 11.7
2005-07-14 08:16:12 51°12.957 2°50.302 242.4 13.5 239 11.7
2005-07-14 08:16:16 51°12.949 2°50.282 242.5 13.5 240 11.7
2005-07-14 08:16:22 51°12.938 2°50.25 242.6 13.5 240 11.7
2005-07-14 08:16:27 51°12.93 2°50.227 242.7 13.5 239 11.7
2005-07-14 08:16:32 51°12.919 2°50.199 242.5 13.5 240 11.8
2005-07-14 08:16:34 51°12.915 2°50.189 242.4 13.5 239 11.7
2005-07-14 08:16:42 51°12.901 2°50.15 242.3 13.5 240 11.8
2005-07-14 08:16:48 51°12.891 2°50.122 242.7 13.5 239 11.7
2005-07-14 08:16:52 51°12.882 2°50.099 242.5 13.5 240 11.7
2005-07-14 08:16:56 51°12.874 2°50.076 242.4 13.5 239 11.7
2005-07-14 08:17:02 51°12.863 2°50.045 242.4 13.4 240 11.7
2005-07-14 08:17:08 51°12.853 2°50.019 242.4 13.4 239 11.7
2005-07-14 08:17:12 51°12.843 2°49.994 241.9 13.5 239 11.7
2005-07-14 08:17:16 51°12.836 2°49.974 241.9 13.5 239 11.7
2005-07-14 08:17:22 51°12.825 2°49.946 242 13.5 239 11.7
2005-07-14 08:17:27 51°12.815 2°49.92 241.8 13.5 239 11.7
2005-07-14 08:17:32 51°12.805 2°49.892 241.7 13.5 239 11.8
2005-07-14 08:17:37 51°12.796 2°49.869 242.3 13.5 240 11.7
2005-07-14 08:17:42 51°12.787 2°49.843 242.4 13.5 239 11.7
2005-07-14 08:17:47 51°12.777 2°49.817 242.6 13.5 239 11.7
2005-07-14 08:17:52 51°12.768 2°49.792 242.5 13.5 239 11.8
2005-07-14 08:17:56 51°12.759 2°49.769 242.3 13.5 239 11.8
2005-07-14 08:18:02 51°12.748 2°49.738 242.2 13.5 240 11.7
2005-07-14 08:18:07 51°12.739 2°49.715 242.2 13.5 240 11.7
2005-07-14 08:18:12 51°12.731 2°49.691 242.5 13.5 240 11.7
2005-07-14 08:18:16 51°12.722 2°49.666 243 13.5 240 11.8
2005-07-14 08:18:22 51°12.712 2°49.64 243.1 13.5 240 11.8
2005-07-14 08:18:28 51°12.701 2°49.609 242.8 13.5 240 11.8
2005-07-14 08:18:31 51°12.694 2°49.592 242.5 13.5 239 11.8
2005-07-14 08:18:38 51°12.682 2°49.558 242.2 13.5 239 11.8
2005-07-14 08:18:42 51°12.673 2°49.532 242.4 13.5 240 11.8
2005-07-14 08:18:47 51°12.664 2°49.509 242.3 13.5 240 11.8
2005-07-14 08:18:52 51°12.654 2°49.481 242.2 13.5 240 11.8
2005-07-14 08:18:56 51°12.646 2°49.461 241.9 13.5 239 11.8
2005-07-14 08:19:02 51°12.634 2°49.43 241.9 13.5 239 11.8
2005-07-14 08:19:07 51°12.626 2°49.407 241.9 13.5 239 11.9
2005-07-14 08:19:12 51°12.615 2°49.379 241.9 13.5 239 11.8
2005-07-14 08:19:18 51°12.606 2°49.353 241.9 13.5 239 11.9
2005-07-14 08:19:22 51°12.597 2°49.33 242.1 13.5 240 11.9
2005-07-14 08:19:27 51°12.588 2°49.304 242.2 13.5 239 11.9
2005-07-14 08:19:31 51°12.58 2°49.284 242.4 13.5 240 11.9
2005-07-14 08:19:37 51°12.568 2°49.252 242.4 13.6 240 11.9
2005-07-14 08:19:42 51°12.558 2°49.224 242.7 13.6 240 11.8
2005-07-14 08:19:48 51°12.548 2°49.198 242.8 13.6 240 11.9
2005-07-14 08:19:52 51°12.539 2°49.173 242.6 13.5 239 11.8
2005-07-14 08:19:56 51°12.531 2°49.152 242.4 13.5 239 11.8
2005-07-14 08:20:02 51°12.52 2°49.121 242 13.5 239 11.8
2005-07-14 08:20:08 51°12.51 2°49.095 242.4 13.6 239 11.8
2005-07-14 08:20:12 51°12.501 2°49.069 242.6 13.5 240 11.9
2005-07-14 08:20:16 51°12.493 2°49.049 242.6 13.5 239 11.8
2005-07-14 08:20:22 51°12.482 2°49.018 242.1 13.5 239 11.8
2005-07-14 08:20:28 51°12.472 2°48.992 242.1 13.5 239 11.8
2005-07-14 08:20:31 51°12.465 2°48.974 242 13.5 240 11.8
2005-07-14 08:20:37 51°12.454 2°48.944 242.3 13.5 239 11.8
2005-07-14 08:20:42 51°12.445 2°48.918 242.4 13.5 239 11.8
2005-07-14 08:20:48 51°12.434 2°48.889 242.8 13.5 239 11.7
2005-07-14 08:20:52 51°12.426 2°48.866 242.9 13.5 240 11.8
2005-07-14 08:20:57 51°12.416 2°48.84 243.1 13.5 240 11.7
2005-07-14 08:21:02 51°12.406 2°48.812 242.9 13.5 240 11.8
2005-07-14 08:21:08 51°12.396 2°48.786 242.7 13.5 240 11.8
2005-07-14 08:21:12 51°12.388 2°48.764 242.2 13.5 239 11.8
2005-07-14 08:21:17 51°12.378 2°48.738 242.2 13.5 240 11.8
2005-07-14 08:21:22 51°12.369 2°48.712 242.4 13.5 240 11.7
2005-07-14 08:21:27 51°12.359 2°48.687 242.3 13.5 240 11.8
2005-07-14 08:21:32 51°12.35 2°48.663 242.6 13.5 240 11.8
2005-07-14 08:21:38 51°12.339 2°48.632 242.6 13.5 240 11.8
2005-07-14 08:21:42 51°12.33 2°48.607 242.7 13.5 240 11.8
2005-07-14 08:21:48 51°12.32 2°48.581 242.8 13.5 240 11.8
2005-07-14 08:21:52 51°12.312 2°48.56 242.5 13.5 240 11.8
2005-07-14 08:21:57 51°12.302 2°48.532 242.3 13.5 239 11.8
2005-07-14 08:22:02 51°12.291 2°48.504 242.1 13.5 240 11.8
2005-07-14 08:22:08 51°12.282 2°48.478 242.2 13.5 239 11.8
2005-07-14 08:22:12 51°12.273 2°48.455 242.3 13.5 239 11.8
2005-07-14 08:22:17 51°12.264 2°48.429 242.7 13.5 240 11.8
2005-07-14 08:22:22 51°12.254 2°48.401 242.7 13.5 240 11.8
2005-07-14 08:22:28 51°12.244 2°48.375 242.6 13.5 240 11.8
2005-07-14 08:22:32 51°12.236 2°48.351 242.4 13.5 240 11.7
2005-07-14 08:22:37 51°12.226 2°48.326 242.4 13.6 240 11.8
2005-07-14 08:22:42 51°12.216 2°48.297 242.5 13.6 240 11.8
2005-07-14 08:22:48 51°12.206 2°48.271 242.6 13.6 240 11.8
2005-07-14 08:22:52 51°12.198 2°48.248 242.8 13.6 240 11.8
2005-07-14 08:22:57 51°12.188 2°48.222 242.5 13.6 239 11.8
2005-07-14 08:23:02 51°12.178 2°48.197 241.9 13.6 239 11.7
2005-07-14 08:23:08 51°12.168 2°48.168 242 13.6 239 11.7
2005-07-14 08:23:12 51°12.158 2°48.143 242.6 13.6 239 11.7
2005-07-14 08:23:18 51°12.149 2°48.117 242.1 13.6 238 11.7
2005-07-14 08:23:22 51°12.14 2°48.094 242.1 13.6 240 11.7
2005-07-14 08:23:28 51°12.129 2°48.065 242.4 13.6 240 11.7
2005-07-14 08:23:32 51°12.12 2°48.039 242.6 13.6 240 11.7
2005-07-14 08:23:36 51°12.112 2°48.019 242.6 13.6 239 11.7
2005-07-14 08:23:42 51°12.1 2°47.988 242.3 13.6 239 11.7
2005-07-14 08:23:47 51°12.092 2°47.964 242.2 13.6 239 11.7
2005-07-14 08:23:52 51°12.081 2°47.936 242.4 13.6 239 11.6
2005-07-14 08:23:56 51°12.073 2°47.915 242.4 13.6 239 11.7
2005-07-14 08:24:02 51°12.062 2°47.884 242.1 13.7 239 11.6
2005-07-14 08:24:08 51°12.052 2°47.858 242.1 13.7 239 11.6
2005-07-14 08:24:11 51°12.045 2°47.84 242.7 13.6 240 11.6
2005-07-14 08:24:16 51°12.035 2°47.811 242.5 13.7 239 11.6
2005-07-14 08:24:22 51°12.023 2°47.78 242.4 13.7 240 11.6
2005-07-14 08:24:27 51°12.015 2°47.756 242.6 13.7 239 11.6
2005-07-14 08:24:32 51°12.005 2°47.73 242.4 13.7 239 11.5
2005-07-14 08:24:37 51°11.996 2°47.704 242.5 13.7 239 11.6
2005-07-14 08:24:42 51°11.985 2°47.676 242.8 13.6 240 11.5
2005-07-14 08:24:48 51°11.975 2°47.649 242.6 13.6 239 11.5
2005-07-14 08:24:52 51°11.967 2°47.625 242.6 13.7 240 11.5
2005-07-14 08:24:57 51°11.958 2°47.602 243.1 13.7 240 11.5
2005-07-14 08:25:02 51°11.947 2°47.573 242.4 13.6 239 11.5
2005-07-14 08:25:08 51°11.937 2°47.544 242.4 13.6 239 11.5
2005-07-14 08:25:12 51°11.929 2°47.524 242.4 13.6 239 11.4
2005-07-14 08:25:17 51°11.92 2°47.498 242.4 13.6 239 11.4
2005-07-14 08:25:22 51°11.909 2°47.469 242.4 13.6 240 11.4
2005-07-14 08:25:27 51°11.9 2°47.443 242.5 13.6 240 11.4
2005-07-14 08:25:32 51°11.892 2°47.416 243.8 13.7 242 11.4
2005-07-14 08:25:37 51°11.884 2°47.391 245.3 13.7 243 11.4
2005-07-14 08:25:43 51°11.874 2°47.359 246.2 13.6 244 11.4
2005-07-14 08:25:47 51°11.867 2°47.334 247 13.6 244 11.4
2005-07-14 08:25:52 51°11.86 2°47.31 247.9 13.7 245 11.4
2005-07-14 08:25:56 51°11.853 2°47.285 248 13.7 245 11.3
2005-07-14 08:26:02 51°11.843 2°47.252 248.1 13.7 245 11.4
2005-07-14 08:26:07 51°11.835 2°47.225 248 13.7 245 11.4
2005-07-14 08:26:11 51°11.829 2°47.203 247.9 13.7 246 11.4
2005-07-14 08:26:18 51°11.818 2°47.167 247.8 13.7 246 11.4
2005-07-14 08:26:22 51°11.811 2°47.143 247.5 13.7 245 11.3
2005-07-14 08:26:28 51°11.802 2°47.112 247.5 13.7 245 11.3
2005-07-14 08:26:32 51°11.795 2°47.088 247.1 13.7 244 11.3
2005-07-14 08:26:37 51°11.787 2°47.063 247.5 13.7 244 11.4
2005-07-14 08:26:42 51°11.778 2°47.033 247.3 13.7 244 11.4
2005-07-14 08:26:47 51°11.77 2°47.006 247.6 13.7 244 11.4
2005-07-14 08:26:52 51°11.763 2°46.981 247.5 13.7 245 11.4
2005-07-14 08:26:57 51°11.754 2°46.954 247.4 13.7 245 11.4
2005-07-14 08:27:02 51°11.745 2°46.924 247.3 13.7 244 11.4
2005-07-14 08:27:07 51°11.737 2°46.896 247.3 13.7 244 11.4
2005-07-14 08:27:12 51°11.73 2°46.872 247.5 13.7 244 11.3
2005-07-14 08:27:17 51°11.721 2°46.845 247.3 13.7 244 11.3
2005-07-14 08:27:22 51°11.712 2°46.815 247.3 13.7 245 11.4
2005-07-14 08:27:27 51°11.704 2°46.787 247.3 13.7 245 11.3
2005-07-14 08:27:33 51°11.695 2°46.757 247.4 13.7 245 11.3
2005-07-14 08:27:37 51°11.689 2°46.732 247.7 13.7 245 11.3
2005-07-14 08:27:42 51°11.681 2°46.704 248.7 13.7 246 11.4
2005-07-14 08:27:48 51°11.673 2°46.673 249.8 13.7 246 11.4
2005-07-14 08:27:52 51°11.667 2°46.648 250.4 13.7 248 11.4
2005-07-14 08:27:57 51°11.66 2°46.623 250.8 13.7 247 11.4
2005-07-14 08:28:02 51°11.652 2°46.592 250.7 13.7 247 11.4
2005-07-14 08:28:07 51°11.645 2°46.564 250.7 13.7 247 11.5
2005-07-14 08:28:12 51°11.637 2°46.536 250.3 13.7 247 11.5
2005-07-14 08:28:17 51°11.631 2°46.511 250 13.7 247 11.5
2005-07-14 08:28:22 51°11.623 2°46.48 250.1 13.7 247 11.6
2005-07-14 08:28:27 51°11.615 2°46.452 250.2 13.7 247 11.6
2005-07-14 08:28:32 51°11.608 2°46.424 250.3 13.7 247 11.6
2005-07-14 08:28:37 51°11.601 2°46.396 250.6 13.8 248 11.6
2005-07-14 08:28:42 51°11.594 2°46.368 250.9 13.8 248 11.7
2005-07-14 08:28:47 51°11.587 2°46.34 250.8 13.8 248 11.7
2005-07-14 08:28:53 51°11.579 2°46.309 250.8 13.8 248 11.7
2005-07-14 08:28:57 51°11.572 2°46.284 250.8 13.7 248 11.8
2005-07-14 08:29:02 51°11.565 2°46.256 250.8 13.8 247 11.7
2005-07-14 08:29:07 51°11.558 2°46.228 250.4 13.8 247 11.7
2005-07-14 08:29:12 51°11.551 2°46.203 250.5 13.7 247 11.7
2005-07-14 08:29:16 51°11.544 2°46.178 250.3 13.7 247 11.7
2005-07-14 08:29:23 51°11.535 2°46.141 250.2 13.7 247 11.7
2005-07-14 08:29:27 51°11.528 2°46.116 250.2 13.7 247 11.6
2005-07-14 08:29:32 51°11.521 2°46.091 249.9 13.8 247 11.7
2005-07-14 08:29:37 51°11.514 2°46.063 249.7 13.8 247 11.6
2005-07-14 08:29:43 51°11.505 2°46.029 249.8 13.8 247 11.6
2005-07-14 08:29:47 51°11.499 2°46.004 250 13.8 247 11.6
2005-07-14 08:29:52 51°11.491 2°45.976 250.6 13.8 248 11.6
2005-07-14 08:29:57 51°11.485 2°45.95 250.8 13.8 248 11.6
2005-07-14 08:30:03 51°11.476 2°45.916 250.8 13.8 248 11.6
2005-07-14 08:30:08 51°11.469 2°45.888 250.7 13.8 248 11.6
2005-07-14 08:30:13 51°11.462 2°45.86 250.6 13.8 248 11.6
2005-07-14 08:30:17 51°11.455 2°45.835 250.5 13.8 248 11.6
2005-07-14 08:30:22 51°11.447 2°45.807 250.4 13.8 247 11.6
2005-07-14 08:30:28 51°11.439 2°45.776 250.1 13.8 248 11.6
2005-07-14 08:30:33 51°11.432 2°45.748 250.2 13.8 247 11.6
2005-07-14 08:30:37 51°11.425 2°45.723 249.8 13.8 247 11.6
2005-07-14 08:30:43 51°11.417 2°45.691 250 13.8 247 11.6
2005-07-14 08:30:47 51°11.412 2°45.669 250.4 13.8 247 11.7
2005-07-14 08:30:52 51°11.404 2°45.638 250.6 13.8 247 11.7
2005-07-14 08:30:57 51°11.397 2°45.61 251.1 13.8 248 11.7
2005-07-14 08:31:02 51°11.389 2°45.582 250.6 13.8 248 11.7
2005-07-14 08:31:07 51°11.382 2°45.553 250.4 13.8 248 11.6
2005-07-14 08:31:11 51°11.376 2°45.531 250.5 13.8 248 11.6
2005-07-14 08:31:18 51°11.367 2°45.494 250.7 13.8 248 11.5
2005-07-14 08:31:23 51°11.359 2°45.466 250.4 13.8 247 11.6
2005-07-14 08:31:27 51°11.353 2°45.441 250.3 13.9 247 11.6
2005-07-14 08:31:32 51°11.346 2°45.415 250.6 13.8 248 11.6
2005-07-14 08:31:37 51°11.339 2°45.387 250.3 13.8 248 11.6
2005-07-14 08:31:42 51°11.331 2°45.356 250.2 13.9 248 11.6
2005-07-14 08:31:47 51°11.324 2°45.328 250.3 13.9 247 11.6
2005-07-14 08:31:52 51°11.317 2°45.302 250.3 13.9 248 11.6
2005-07-14 08:31:57 51°11.31 2°45.274 250.4 13.9 248 11.6
2005-07-14 08:32:03 51°11.301 2°45.24 250.7 13.9 249 11.6
2005-07-14 08:32:08 51°11.294 2°45.211 250.8 13.9 249 11.5
2005-07-14 08:32:12 51°11.288 2°45.186 250.6 13.9 248 11.5
2005-07-14 08:32:17 51°11.281 2°45.16 250.4 13.9 248 11.5
2005-07-14 08:32:22 51°11.273 2°45.129 250.4 13.9 248 11.5
2005-07-14 08:32:28 51°11.265 2°45.098 250.4 13.9 248 11.5
2005-07-14 08:32:32 51°11.26 2°45.075 250.4 13.9 249 11.6
2005-07-14 08:32:37 51°11.252 2°45.047 250.7 13.9 248 11.6
2005-07-14 08:32:42 51°11.244 2°45.015 250.3 13.9 247 11.5
2005-07-14 08:32:47 51°11.237 2°44.987 250.4 13.9 247 11.5
2005-07-14 08:32:51 51°11.231 2°44.964 250.4 13.9 248 11.5
2005-07-14 08:32:57 51°11.223 2°44.933 250.2 13.9 247 11.5
2005-07-14 08:33:02 51°11.215 2°44.902 250.1 13.9 248 11.5
2005-07-14 08:33:07 51°11.207 2°44.874 250.1 13.9 248 11.4
2005-07-14 08:33:12 51°11.2 2°44.846 249.8 13.9 248 11.5
2005-07-14 08:33:17 51°11.193 2°44.817 250 13.9 248 11.5
2005-07-14 08:33:23 51°11.185 2°44.786 250.3 13.9 248 11.5
2005-07-14 08:33:27 51°11.178 2°44.76 250.7 13.9 248 11.4
2005-07-14 08:33:32 51°11.171 2°44.731 250.8 13.9 248 11.5
2005-07-14 08:33:37 51°11.164 2°44.703 250.9 13.9 248 11.4
2005-07-14 08:33:43 51°11.156 2°44.671 250.5 13.9 248 11.5
2005-07-14 08:33:47 51°11.151 2°44.649 250.4 14 249 11.4
2005-07-14 08:33:52 51°11.142 2°44.617 250.5 14 249 11.4
2005-07-14 08:33:57 51°11.136 2°44.592 250.3 13.9 247 11.4
2005-07-14 08:34:03 51°11.127 2°44.558 250.1 13.9 247 11.4
2005-07-14 08:34:07 51°11.12 2°44.532 250.3 13.9 247 11.4
2005-07-14 08:34:12 51°11.113 2°44.504 250.1 13.9 248 11.4
2005-07-14 08:34:17 51°11.106 2°44.478 249.9 13.9 248 11.4
2005-07-14 08:34:23 51°11.097 2°44.444 249.6 13.9 247 11.4
2005-07-14 08:34:28 51°11.09 2°44.416 249.6 13.9 247 11.4
2005-07-14 08:34:33 51°11.082 2°44.388 249.6 14 247 11.4
2005-07-14 08:34:37 51°11.076 2°44.365 250 13.9 248 11.3
2005-07-14 08:34:42 51°11.069 2°44.334 250.1 13.9 247 11.3
2005-07-14 08:34:47 51°11.061 2°44.305 250.5 13.9 249 11.3
2005-07-14 08:34:53 51°11.053 2°44.274 250.8 13.9 249 11.3
2005-07-14 08:34:57 51°11.048 2°44.251 250.3 13.9 249 11.3
2005-07-14 08:35:02 51°11.04 2°44.22 250.1 13.9 247 11.3
2005-07-14 08:35:07 51°11.032 2°44.192 249.8 13.9 248 11.2
2005-07-14 08:35:13 51°11.024 2°44.16 249.8 13.9 248 11.2
2005-07-14 08:35:17 51°11.018 2°44.137 250 14 248 11.2
2005-07-14 08:35:22 51°11.01 2°44.106 250.2 14 248 11.3
2005-07-14 08:35:27 51°11.003 2°44.078 250.6 13.9 249 11.2
2005-07-14 08:35:32 51°10.997 2°44.052 250.4 13.9 248 11.2
2005-07-14 08:35:37 51°10.988 2°44.021 250.3 13.9 248 11.2
2005-07-14 08:35:42 51°10.981 2°43.992 250 13.9 248 11.3
2005-07-14 08:35:47 51°10.974 2°43.964 250 13.9 247 11.2
2005-07-14 08:35:52 51°10.966 2°43.936 249.5 13.9 247 11.2
2005-07-14 08:35:57 51°10.959 2°43.907 249.6 13.9 247 11.2
2005-07-14 08:36:02 51°10.951 2°43.879 249.5 13.9 247 11.2
2005-07-14 08:36:08 51°10.943 2°43.848 249.4 13.9 247 11.2
2005-07-14 08:36:12 51°10.937 2°43.825 249.4 13.9 247 11.2
2005-07-14 08:36:17 51°10.93 2°43.797 249.4 13.9 247 11.2
2005-07-14 08:36:23 51°10.921 2°43.763 249.5 13.9 247 11.2
2005-07-14 08:36:27 51°10.914 2°43.738 249.6 13.9 248 11.2
2005-07-14 08:36:32 51°10.907 2°43.71 249.7 13.9 248 11.2
2005-07-14 08:36:37 51°10.9 2°43.682 249.5 13.8 247 11.1
2005-07-14 08:36:42 51°10.892 2°43.654 249.3 13.8 247 11.1
2005-07-14 08:36:47 51°10.885 2°43.626 248.9 13.8 247 11.1
2005-07-14 08:36:52 51°10.877 2°43.598 249.2 13.8 247 11.1
2005-07-14 08:36:57 51°10.869 2°43.569 248.9 13.8 247 11.1
2005-07-14 08:37:02 51°10.862 2°43.542 248.9 13.8 247 11.1
2005-07-14 08:37:07 51°10.854 2°43.514 248.7 13.8 247 11.1
2005-07-14 08:37:13 51°10.846 2°43.483 249 13.8 247 11.1
2005-07-14 08:37:17 51°10.84 2°43.46 249.4 13.8 247 11.1
2005-07-14 08:37:22 51°10.832 2°43.43 249.6 13.7 247 11
2005-07-14 08:37:27 51°10.825 2°43.402 249.5 13.7 247 11
2005-07-14 08:37:32 51°10.818 2°43.377 249.5 13.7 247 11
2005-07-14 08:37:37 51°10.81 2°43.349 249.4 13.7 247 11
2005-07-14 08:37:42 51°10.802 2°43.318 249.4 13.7 246 11
2005-07-14 08:37:47 51°10.795 2°43.29 249.2 13.7 247 11
2005-07-14 08:37:52 51°10.787 2°43.262 249.2 13.8 247 10.9
2005-07-14 08:37:57 51°10.78 2°43.234 249.4 13.8 247 10.9
2005-07-14 08:38:02 51°10.773 2°43.209 249.6 13.8 247 10.9
2005-07-14 08:38:08 51°10.764 2°43.176 249.5 13.8 247 10.9
2005-07-14 08:38:12 51°10.758 2°43.153 249.2 13.8 247 10.9
2005-07-14 08:38:17 51°10.751 2°43.125 249.5 13.8 247 10.9
2005-07-14 08:38:23 51°10.742 2°43.092 249.8 13.8 247 10.8
2005-07-14 08:38:27 51°10.736 2°43.066 249.8 13.8 247 10.8
2005-07-14 08:38:32 51°10.729 2°43.04 250.2 13.8 247 10.8
2005-07-14 08:38:37 51°10.722 2°43.012 250.4 13.8 247 10.8
2005-07-14 08:38:42 51°10.715 2°42.981 250.4 13.8 247 10.8
2005-07-14 08:38:47 51°10.707 2°42.952 250.4 13.8 247 10.8
2005-07-14 08:38:52 51°10.701 2°42.927 250.2 13.9 248 10.9
2005-07-14 08:38:57 51°10.693 2°42.899 250.2 13.9 247 10.8
2005-07-14 08:39:02 51°10.686 2°42.867 250.8 13.8 249 10.8
2005-07-14 08:39:07 51°10.68 2°42.841 251.4 13.8 249 10.8
2005-07-14 08:39:13 51°10.672 2°42.807 252 13.8 249 10.8
2005-07-14 08:39:17 51°10.666 2°42.781 252.5 13.9 250 10.8
2005-07-14 08:39:22 51°10.66 2°42.752 253.3 13.8 250 10.8
2005-07-14 08:39:28 51°10.652 2°42.72 253.2 13.9 250 10.8
2005-07-14 08:39:33 51°10.645 2°42.691 252.9 13.9 250 10.8
2005-07-14 08:39:38 51°10.638 2°42.662 252.5 14 249 10.8
2005-07-14 08:39:43 51°10.631 2°42.634 252.2 13.9 249 10.8
2005-07-14 08:39:47 51°10.625 2°42.608 252.3 13.9 249 10.8
2005-07-14 08:39:53 51°10.618 2°42.576 252.3 14 249 10.8
2005-07-14 08:39:57 51°10.612 2°42.55 252.5 14 249 10.8
2005-07-14 08:40:02 51°10.605 2°42.521 252.6 14 249 10.7
2005-07-14 08:40:07 51°10.598 2°42.492 252.9 14 249 10.8
2005-07-14 08:40:12 51°10.591 2°42.463 253 14 249 10.8
2005-07-14 08:40:17 51°10.584 2°42.434 253.2 14 249 10.8
2005-07-14 08:40:22 51°10.578 2°42.405 252.5 14 249 10.7
2005-07-14 08:40:27 51°10.571 2°42.376 252.5 14 250 10.7
2005-07-14 08:40:32 51°10.564 2°42.35 252.3 14 250 10.9
2005-07-14 08:40:37 51°10.557 2°42.322 252 13.9 249 10.7
2005-07-14 08:40:43 51°10.549 2°42.287 251.8 14 249 10.8
2005-07-14 08:40:47 51°10.543 2°42.261 252.5 14 250 10.8
2005-07-14 08:40:52 51°10.536 2°42.232 252.4 14 249 10.7
2005-07-14 08:40:57 51°10.529 2°42.203 252.4 14 249 10.7
2005-07-14 08:41:02 51°10.522 2°42.174 252.5 14 249 10.8
2005-07-14 08:41:08 51°10.515 2°42.143 252.5 14 249 10.7
2005-07-14 08:41:12 51°10.508 2°42.117 252.5 14 249 10.8
2005-07-14 08:41:17 51°10.502 2°42.09 252.5 14 249 10.8
2005-07-14 08:41:22 51°10.495 2°42.059 252.5 14 250 10.8
2005-07-14 08:41:27 51°10.488 2°42.03 252.8 14 250 10.8
2005-07-14 08:41:31 51°10.483 2°42.006 252.7 14 250 10.8
2005-07-14 08:41:37 51°10.476 2°41.974 252.6 14.1 250 10.8
2005-07-14 08:41:42 51°10.468 2°41.942 253 14 250 10.8
2005-07-14 08:41:47 51°10.462 2°41.913 252.8 14 250 10.8
2005-07-14 08:41:52 51°10.455 2°41.885 252.9 14 251 10.8
2005-07-14 08:41:57 51°10.449 2°41.858 252.6 13.9 250 10.8
2005-07-14 08:42:02 51°10.441 2°41.827 252.4 14 249 10.8
2005-07-14 08:42:07 51°10.435 2°41.798 252.2 14 249 10.9
2005-07-14 08:42:11 51°10.429 2°41.775 252.2 13.9 249 10.9
2005-07-14 08:42:17 51°10.422 2°41.743 252.1 13.9 249 10.8
2005-07-14 08:42:22 51°10.415 2°41.712 252.4 13.8 250 10.9
2005-07-14 08:42:27 51°10.408 2°41.683 252.2 13.9 249 10.8
2005-07-14 08:42:32 51°10.403 2°41.657 252.8 13.8 251 10.9
2005-07-14 08:42:37 51°10.396 2°41.628 253.2 13.8 251 10.8
2005-07-14 08:42:42 51°10.39 2°41.596 253.5 13.8 251 10.9
2005-07-14 08:42:47 51°10.384 2°41.567 254 13.8 251 10.9
2005-07-14 08:42:52 51°10.378 2°41.541 254 13.9 252 10.9
2005-07-14 08:42:57 51°10.372 2°41.512 254.3 13.9 252 10.9
2005-07-14 08:43:02 51°10.366 2°41.48 254.7 13.9 252 10.9
2005-07-14 08:43:07 51°10.361 2°41.454 254.8 13.8 252 10.9
2005-07-14 08:43:13 51°10.354 2°41.419 254.9 13.8 252 10.9
2005-07-14 08:43:17 51°10.348 2°41.393 254.5 13.8 252 11
2005-07-14 08:43:22 51°10.342 2°41.364 254.2 13.8 251 10.9
2005-07-14 08:43:28 51°10.335 2°41.332 254.1 13.9 252 11
2005-07-14 08:43:32 51°10.331 2°41.309 254.4 13.9 252 11
2005-07-14 08:43:37 51°10.324 2°41.277 254.3 13.8 251 11
2005-07-14 08:43:42 51°10.318 2°41.248 254.1 13.8 251 10.9
2005-07-14 08:43:47 51°10.312 2°41.222 253.5 13.9 250 10.9
2005-07-14 08:43:51 51°10.306 2°41.199 252.8 13.8 250 11
2005-07-14 08:43:58 51°10.296 2°41.16 252.1 13.8 250 11
2005-07-14 08:44:02 51°10.289 2°41.135 250.6 13.8 247 11
2005-07-14 08:44:07 51°10.281 2°41.107 248.5 13.8 246 11
2005-07-14 08:44:12 51°10.273 2°41.082 247.5 13.8 245 10.9
2005-07-14 08:44:17 51°10.265 2°41.055 246.3 13.8 245 10.9
2005-07-14 08:44:22 51°10.255 2°41.025 245.8 13.8 244 10.9
2005-07-14 08:44:27 51°10.247 2°40.998 245.4 13.8 243 10.9
2005-07-14 08:44:32 51°10.239 2°40.973 245.1 13.8 244 10.9
2005-07-14 08:44:37 51°10.231 2°40.946 245.7 13.8 244 10.9
2005-07-14 08:44:42 51°10.222 2°40.915 246 13.8 244 10.9
2005-07-14 08:44:47 51°10.214 2°40.888 246.5 13.8 244 10.9
2005-07-14 08:44:52 51°10.206 2°40.863 246.8 13.9 245 10.9
2005-07-14 08:44:57 51°10.198 2°40.835 247 13.9 245 10.9
2005-07-14 08:45:03 51°10.188 2°40.802 247.3 13.9 245 10.9
2005-07-14 08:45:07 51°10.181 2°40.777 246.9 13.9 245 10.9
2005-07-14 08:45:12 51°10.173 2°40.752 246.8 13.9 245 10.9
2005-07-14 08:45:17 51°10.164 2°40.721 246.7 13.9 245 10.9
2005-07-14 08:45:23 51°10.155 2°40.691 246.7 13.9 245 10.8
2005-07-14 08:45:27 51°10.148 2°40.666 246.9 13.9 245 10.8
2005-07-14 08:45:32 51°10.14 2°40.638 246.8 13.9 245 10.9
2005-07-14 08:45:37 51°10.132 2°40.61 246.9 13.9 244 10.9
2005-07-14 08:45:43 51°10.123 2°40.58 246.7 13.9 244 10.9
2005-07-14 08:45:47 51°10.115 2°40.555 246.6 13.9 245 10.8
2005-07-14 08:45:53 51°10.106 2°40.524 246.6 13.9 245 10.8
2005-07-14 08:45:57 51°10.099 2°40.499 246.8 13.9 244 10.8
2005-07-14 08:46:02 51°10.091 2°40.474 246.5 13.9 245 10.8
2005-07-14 08:46:08 51°10.081 2°40.441 246.5 13.9 244 10.9
2005-07-14 08:46:12 51°10.074 2°40.416 246.3 13.9 244 10.9
2005-07-14 08:46:17 51°10.067 2°40.391 246.7 13.9 244 10.8
2005-07-14 08:46:23 51°10.057 2°40.357 247.2 14 246 10.8
2005-07-14 08:46:27 51°10.05 2°40.332 247.6 14 246 10.8
2005-07-14 08:46:33 51°10.041 2°40.301 247.9 13.9 246 10.7
2005-07-14 08:46:38 51°10.034 2°40.272 247.9 14 246 10.8
2005-07-14 08:46:42 51°10.026 2°40.248 247.7 13.9 246 10.8
2005-07-14 08:46:47 51°10.018 2°40.22 247.3 13.9 245 10.7
2005-07-14 08:46:52 51°10.01 2°40.191 247 13.9 245 10.7
2005-07-14 08:46:57 51°10.003 2°40.166 247.1 13.9 245 10.7
2005-07-14 08:47:03 51°9.993 2°40.132 247.2 13.9 245 10.8
2005-07-14 08:47:07 51°9.986 2°40.107 247.4 13.9 245 10.7
2005-07-14 08:47:12 51°9.978 2°40.079 247.6 14 246 10.8
2005-07-14 08:47:17 51°9.971 2°40.054 247.2 14 245 10.7
2005-07-14 08:47:22 51°9.962 2°40.023 247 14 245 10.7
2005-07-14 08:47:28 51°9.953 2°39.992 247 13.9 245 10.7
2005-07-14 08:47:31 51°9.947 2°39.973 246.7 14 245 10.7
2005-07-14 08:47:38 51°9.937 2°39.936 246.5 14 245 10.7
2005-07-14 08:47:42 51°9.929 2°39.911 246.9 14 245 10.7
2005-07-14 08:47:48 51°9.92 2°39.88 246.7 14 246 10.7
2005-07-14 08:47:52 51°9.913 2°39.855 246.8 14 246 10.7
2005-07-14 08:47:57 51°9.906 2°39.829 247 14 246 10.7
2005-07-14 08:48:02 51°9.897 2°39.798 247.2 14 246 10.7
2005-07-14 08:48:07 51°9.889 2°39.77 247.5 14 246 10.7
2005-07-14 08:48:12 51°9.882 2°39.741 247.6 14 246 10.6
2005-07-14 08:48:17 51°9.873 2°39.713 247.6 14 246 10.6
2005-07-14 08:48:22 51°9.866 2°39.685 247.3 14 246 10.6
2005-07-14 08:48:27 51°9.858 2°39.657 247.3 14 246 10.7
2005-07-14 08:48:33 51°9.849 2°39.626 247.2 14 245 10.6
2005-07-14 08:48:38 51°9.841 2°39.597 247.2 14 246 10.7
2005-07-14 08:48:43 51°9.833 2°39.569 247.2 14 246 10.6
2005-07-14 08:48:47 51°9.825 2°39.544 247.1 14 246 10.6
2005-07-14 08:48:51 51°9.819 2°39.521 246.9 14.1 246 10.6
2005-07-14 08:48:57 51°9.81 2°39.49 247.5 14 247 10.6
2005-07-14 08:49:02 51°9.801 2°39.459 247.4 14 245 10.6
2005-07-14 08:49:07 51°9.793 2°39.431 247 14.1 245 10.7
2005-07-14 08:49:12 51°9.786 2°39.402 247 14.1 245 10.6
2005-07-14 08:49:17 51°9.778 2°39.377 247.3 14 246 10.6
2005-07-14 08:49:23 51°9.769 2°39.343 247.5 14 246 10.6
2005-07-14 08:49:27 51°9.762 2°39.318 247.5 14.1 246 10.7
2005-07-14 08:49:32 51°9.754 2°39.289 247.5 14.1 247 10.7
2005-07-14 08:49:37 51°9.746 2°39.264 247.3 14 245 10.7
2005-07-14 08:49:43 51°9.737 2°39.23 247 14 245 10.7
2005-07-14 08:49:47 51°9.73 2°39.205 247 14.1 245 10.7
2005-07-14 08:49:52 51°9.721 2°39.177 247 14.1 246 10.7
2005-07-14 08:49:57 51°9.713 2°39.148 246.8 14.1 246 10.7
2005-07-14 08:50:03 51°9.705 2°39.117 246.9 14.1 246 10.7
2005-07-14 08:50:07 51°9.698 2°39.091 247.3 14.1 246 10.7
2005-07-14 08:50:12 51°9.69 2°39.063 247.6 14.1 246 10.8
2005-07-14 08:50:17 51°9.683 2°39.037 247.3 14.1 246 10.7
2005-07-14 08:50:23 51°9.675 2°39.002 247.5 14.2 248 10.7
2005-07-14 08:50:27 51°9.67 2°38.978 251.1 14.2 248 10.7
2005-07-14 08:50:33 51°9.664 2°38.943 253.5 14.1 253 10.8
2005-07-14 08:50:37 51°9.659 2°38.919 255 14.1 253 10.8
2005-07-14 08:50:42 51°9.654 2°38.886 255.7 14.1 254 10.9
2005-07-14 08:50:48 51°9.647 2°38.853 255.9 14.1 254 10.9
2005-07-14 08:50:53 51°9.642 2°38.823 255.8 14.1 254 11
2005-07-14 08:50:57 51°9.637 2°38.799 255.4 14.1 253 11
2005-07-14 08:51:03 51°9.63 2°38.764 255 14.1 252 11
2005-07-14 08:51:07 51°9.625 2°38.738 254.4 14.1 252 10.9
2005-07-14 08:51:13 51°9.618 2°38.705 254.3 14.1 252 10.9
2005-07-14 08:51:17 51°9.613 2°38.678 254.1 14.1 252 10.9
2005-07-14 08:51:22 51°9.607 2°38.649 254 14.1 252 11
2005-07-14 08:51:27 51°9.601 2°38.619 254 14.1 252 10.9
2005-07-14 08:51:32 51°9.596 2°38.592 254 14.1 252 11
2005-07-14 08:51:37 51°9.589 2°38.563 254.1 14.1 253 11
2005-07-14 08:51:43 51°9.582 2°38.527 254.1 14.2 252 11
2005-07-14 08:51:47 51°9.577 2°38.5 254 14.2 252 11
2005-07-14 08:51:52 51°9.572 2°38.473 254 14.2 253 11
2005-07-14 08:51:58 51°9.565 2°38.437 254.2 14.2 253 11
2005-07-14 08:52:02 51°9.56 2°38.411 254.2 14.2 253 11
2005-07-14 08:52:07 51°9.554 2°38.381 254.3 14.2 253 11
2005-07-14 08:52:12 51°9.548 2°38.351 254.7 14.2 253 11
2005-07-14 08:52:17 51°9.542 2°38.321 254.7 14.2 253 11
2005-07-14 08:52:23 51°9.536 2°38.288 254.7 14.2 253 11
2005-07-14 08:52:27 51°9.531 2°38.264 254.7 14.2 253 11
2005-07-14 08:52:32 51°9.525 2°38.232 254.1 14.2 253 11.1
2005-07-14 08:52:37 51°9.519 2°38.202 254.2 14.2 252 11.2
2005-07-14 08:52:42 51°9.513 2°38.172 254.1 14.2 252 11.1
2005-07-14 08:52:48 51°9.507 2°38.139 254.3 14.2 252 11.2
2005-07-14 08:52:52 51°9.502 2°38.115 254.1 14.2 253 11.2
2005-07-14 08:52:57 51°9.496 2°38.085 254.4 14.2 253 11.2
2005-07-14 08:53:02 51°9.49 2°38.052 254.3 14.2 253 11.2
2005-07-14 08:53:08 51°9.483 2°38.019 254.7 14.2 253 11.2
2005-07-14 08:53:12 51°9.479 2°37.995 254.7 14.2 253 11.2
2005-07-14 08:53:17 51°9.473 2°37.965 254.4 14.2 252 11.3
2005-07-14 08:53:22 51°9.466 2°37.932 254.3 14.3 253 11.4
2005-07-14 08:53:27 51°9.46 2°37.902 254.6 14.3 253 11.3
2005-07-14 08:53:33 51°9.453 2°37.87 254.5 14.3 253 11.4
2005-07-14 08:53:37 51°9.447 2°37.847 252.5 14.1 249 11.3
2005-07-14 08:53:43 51°9.437 2°37.813 249.8 14.1 249 11.4
2005-07-14 08:53:47 51°9.429 2°37.788 247.4 14.1 249 11.4
2005-07-14 08:53:52 51°9.421 2°37.763 245.2 14.1 242 11.3
2005-07-14 08:53:57 51°9.411 2°37.734 243.6 14.1 242 11.4
2005-07-14 08:54:02 51°9.402 2°37.71 241.5 14 240 11.4
2005-07-14 08:54:07 51°9.39 2°37.681 239.8 14.1 239 11.4
2005-07-14 08:54:12 51°9.38 2°37.654 239.2 14 238 11.4
2005-07-14 08:54:17 51°9.37 2°37.631 238.5 14 238 11.3
2005-07-14 08:54:23 51°9.358 2°37.601 237.8 14 237 11.3
2005-07-14 08:54:27 51°9.348 2°37.576 237.6 14 237 11.3
2005-07-14 08:54:32 51°9.338 2°37.552 237.2 14.1 236 11.3
2005-07-14 08:54:37 51°9.327 2°37.525 237 14.1 237 11.3
2005-07-14 08:54:42 51°9.317 2°37.501 237.4 14.1 237 11.2
2005-07-14 08:54:48 51°9.305 2°37.471 237.7 14.1 237 11.1
2005-07-14 08:54:52 51°9.295 2°37.447 237.9 14.1 237 11.2
2005-07-14 08:54:56 51°9.287 2°37.426 237.9 14.1 237 11.1
2005-07-14 08:55:02 51°9.274 2°37.396 237.9 14.1 237 11
2005-07-14 08:55:08 51°9.264 2°37.37 237.8 13.5 237 10.9
2005-07-14 08:55:12 51°9.255 2°37.349 237.6 13.5 237 11
2005-07-14 08:55:17 51°9.248 2°37.33 237.3 13.5 237 11
2005-07-14 08:55:22 51°9.239 2°37.311 236.9 13.5 237 11.1
2005-07-14 08:55:28 51°9.229 2°37.288 235.7 13.5 237 11
2005-07-14 08:55:32 51°9.222 2°37.272 235 10 235 11
2005-07-14 08:55:37 51°9.215 2°37.257 234.3 9.8 235 11
2005-07-14 08:55:42 51°9.208 2°37.241 233.7 9.8 235 11
2005-07-14 08:55:48 51°9.2 2°37.224 233.4 9.8 235 11
2005-07-14 08:55:52 51°9.194 2°37.211 232.9 8.3 234 11
2005-07-14 08:55:58 51°9.187 2°37.197 231.2 8.3 234 10.9
2005-07-14 08:56:02 51°9.182 2°37.189 229.4 7 229 10.8
2005-07-14 08:56:06 51°9.177 2°37.181 226.4 7 229 10.8
2005-07-14 08:56:12 51°9.17 2°37.17 222.7 7 229 10.7
2005-07-14 08:56:17 51°9.165 2°37.162 219.2 7 229 10.7
2005-07-14 08:56:22 51°9.162 2°37.156 217.4 4.4 225 10.6
2005-07-14 08:56:27 51°9.159 2°37.149 218.5 4.4 225 10.6
2005-07-14 08:56:32 51°9.156 2°37.144 221.9 4.4 225 10.7
2005-07-14 08:56:37 51°9.154 2°37.14 225.6 4.4 225 10.6
2005-07-14 08:56:42 51°9.153 2°37.137 229.3 2 240 10.6
2005-07-14 08:56:48 51°9.153 2°37.134 233.1 2 240 10.7
2005-07-14 08:56:52 51°9.153 2°37.134 236.2 0.6 257 10.7
2005-07-14 08:56:57 51°9.154 2°37.134 238.4 0.4 -999 10.7
2005-07-14 08:57:02 51°9.154 2°37.134 240.4 0.4 18 10.7
2005-07-14 08:57:08 51°9.155 2°37.135 242.5 0.4 18 10.7
2005-07-14 08:57:12 51°9.155 2°37.135 244.4 0.4 18 4.9
2005-07-14 08:57:18 51°9.155 2°37.135 246 0.4 18 -999
2005-07-14 08:57:22 51°9.155 2°37.135 246.8 0.1 12 -999
2005-07-14 08:57:28 51°9.156 2°37.135 247.4 0.2 355 6.4
2005-07-14 08:57:33 51°9.156 2°37.135 247.4 0.1 337 -999
2005-07-14 08:57:38 51°9.156 2°37.134 247.2 0.1 337 -999
2005-07-14 08:57:42 51°9.156 2°37.134 246.7 0.1 323 -999
2005-07-14 08:57:48 51°9.156 2°37.134 246.3 0.2 310 -999
2005-07-14 08:57:53 51°9.156 2°37.133 245.6 0.2 303 -999
2005-07-14 08:57:58 51°9.156 2°37.133 245.1 0.2 308 -999
2005-07-14 08:58:02 51°9.156 2°37.133 244.6 0.3 312 -999
2005-07-14 08:58:08 51°9.157 2°37.132 244.2 0.2 301 -999
2005-07-14 08:58:12 51°9.157 2°37.132 243.8 0.3 308 5
2005-07-14 08:58:18 51°9.157 2°37.131 243.6 0.3 306 5
2005-07-14 08:58:22 51°9.157 2°37.131 243.3 0.3 306 5.4
2005-07-14 08:58:28 51°9.158 2°37.13 243.1 0.3 309 4.8
2005-07-14 08:58:32 51°9.158 2°37.13 242.8 0.4 309 4.7
2005-07-14 08:58:37 51°9.158 2°37.129 242.5 0.3 300 4.8
2005-07-14 08:58:42 51°9.158 2°37.129 242.2 0.4 303 10.7
2005-07-14 08:58:47 51°9.159 2°37.128 241.9 0.3 299 10.8
2005-07-14 08:58:52 51°9.159 2°37.127 241.6 0.4 299 10.8
2005-07-14 08:58:58 51°9.159 2°37.127 241.3 0.4 299 10.8
2005-07-14 08:59:02 51°9.159 2°37.126 240.9 0.4 297 10.8
2005-07-14 08:59:08 51°9.159 2°37.125 240.7 0.4 291 10.8
2005-07-14 08:59:13 51°9.16 2°37.124 240.3 0.4 291 10.8
2005-07-14 08:59:18 51°9.16 2°37.123 240.1 0.4 294 10.7
2005-07-14 08:59:22 51°9.159 2°37.123 239.5 0.4 293 10.7
2005-07-14 08:59:28 51°9.16 2°37.122 239.4 0.4 289 10.8
2005-07-14 08:59:32 51°9.16 2°37.121 239 0.4 298 10.8
2005-07-14 08:59:38 51°9.16 2°37.12 238.7 0.4 298 10.8
2005-07-14 08:59:42 51°9.16 2°37.119 238.5 0.4 298 10.7
2005-07-14 08:59:48 51°9.161 2°37.118 238.1 0.4 298 10.8
2005-07-14 08:59:52 51°9.161 2°37.118 237.8 0.4 298 10.7
2005-07-14 08:59:58 51°9.161 2°37.117 237.7 0.4 298 10.8
2005-07-14 09:00:02 51°9.162 2°37.116 237.3 0.5 296 10.8
2005-07-14 09:00:08 51°9.162 2°37.115 237.1 0.4 292 10.8
2005-07-14 09:00:13 51°9.162 2°37.114 236.9 0.4 292 10.9
2005-07-14 09:00:18 51°9.162 2°37.113 236.6 0.5 294 10.8
2005-07-14 09:00:22 51°9.163 2°37.112 236.3 0.5 294 10.8
2005-07-14 09:00:28 51°9.163 2°37.111 236.1 0.5 294 10.8
2005-07-14 09:00:32 51°9.163 2°37.11 235.8 0.5 287 10.8
2005-07-14 09:00:38 51°9.163 2°37.109 235.8 0.5 292 10.8
2005-07-14 09:00:42 51°9.163 2°37.108 235.6 0.5 293 10.8
2005-07-14 09:00:48 51°9.163 2°37.106 235.5 0.5 290 10.8
2005-07-14 09:00:52 51°9.163 2°37.105 235.3 0.5 290 10.8
2005-07-14 09:00:58 51°9.163 2°37.104 235.2 0.5 291 10.8
2005-07-14 09:01:02 51°9.164 2°37.103 235.1 0.6 292 10.9
2005-07-14 09:01:08 51°9.164 2°37.101 235 0.5 294 10.8
2005-07-14 09:01:12 51°9.164 2°37.1 235 0.5 294 10.9
2005-07-14 09:01:17 51°9.165 2°37.099 234.8 0.5 294 10.9
2005-07-14 09:01:22 51°9.165 2°37.098 234.8 0.5 294 10.9
2005-07-14 09:01:28 51°9.165 2°37.097 234.8 0.5 286 10.8
2005-07-14 09:01:32 51°9.165 2°37.096 234.7 0.5 286 10.8
2005-07-14 09:01:38 51°9.166 2°37.094 234.6 0.6 281 10.8
2005-07-14 09:01:42 51°9.166 2°37.093 234.6 0.6 289 10.8
2005-07-14 09:01:47 51°9.166 2°37.092 234.6 0.6 289 10.8
2005-07-14 09:01:52 51°9.166 2°37.09 234.7 0.6 281 10.9
2005-07-14 09:01:58 51°9.167 2°37.089 234.8 0.6 280 11
2005-07-14 09:02:01 51°9.167 2°37.088 234.8 0.6 280 11
2005-07-14 09:02:08 51°9.167 2°37.086 234.8 0.6 283 10.9
2005-07-14 09:02:12 51°9.167 2°37.085 234.9 0.6 277 10.9
2005-07-14 09:02:17 51°9.168 2°37.084 235.1 0.6 280 10.9
2005-07-14 09:02:21 51°9.168 2°37.083 235 0.6 280 10.9
2005-07-14 09:02:28 51°9.168 2°37.081 235.1 0.6 280 10.9
2005-07-14 09:02:32 51°9.168 2°37.08 235.1 0.7 279 10.9
2005-07-14 09:02:38 51°9.168 2°37.078 235.1 0.6 277 10.9
2005-07-14 09:02:42 51°9.169 2°37.077 235.1 0.6 277 10.9
2005-07-14 09:02:47 51°9.169 2°37.076 235.1 0.7 276 11
2005-07-14 09:02:52 51°9.169 2°37.074 235 0.7 283 11
2005-07-14 09:02:57 51°9.169 2°37.073 235 0.7 283 11
2005-07-14 09:03:02 51°9.17 2°37.071 234.8 0.7 279 10.9
2005-07-14 09:03:08 51°9.17 2°37.07 234.6 0.7 279 11
2005-07-14 09:03:12 51°9.17 2°37.069 234.5 0.7 279 11
2005-07-14 09:03:18 51°9.17 2°37.067 234.3 0.7 281 11
2005-07-14 09:03:22 51°9.17 2°37.066 234 0.7 281 11
2005-07-14 09:03:28 51°9.171 2°37.064 234 0.7 282 11
2005-07-14 09:03:32 51°9.171 2°37.063 233.9 0.7 276 11
2005-07-14 09:03:38 51°9.171 2°37.061 233.7 0.7 276 11
2005-07-14 09:03:41 51°9.171 2°37.06 233.6 0.7 276 11
2005-07-14 09:03:48 51°9.171 2°37.058 233.4 0.7 278 11
2005-07-14 09:03:53 51°9.171 2°37.057 233.3 0.7 275 11
2005-07-14 09:03:58 51°9.171 2°37.055 233.1 0.7 275 11
2005-07-14 09:04:02 51°9.171 2°37.054 233 0.7 275 11
2005-07-14 09:04:08 51°9.171 2°37.052 232.8 0.7 276 11
2005-07-14 09:04:13 51°9.171 2°37.05 232.7 0.7 275 11
2005-07-14 09:04:18 51°9.171 2°37.049 232.6 0.7 274 11
2005-07-14 09:04:22 51°9.171 2°37.048 232.5 0.7 274 11
2005-07-14 09:04:28 51°9.171 2°37.046 232.4 0.7 274 11
2005-07-14 09:04:32 51°9.172 2°37.044 232.2 0.7 272 11
2005-07-14 09:04:38 51°9.172 2°37.043 232.2 0.7 274 11
2005-07-14 09:04:42 51°9.172 2°37.041 232.2 0.7 274 11
2005-07-14 09:04:47 51°9.172 2°37.04 232.1 0.8 274 11.1
2005-07-14 09:04:52 51°9.172 2°37.038 231.8 0.7 269 11.1
2005-07-14 09:04:58 51°9.172 2°37.036 231.7 0.8 274 11.1
2005-07-14 09:05:02 51°9.172 2°37.035 231.6 0.8 274 11.1
2005-07-14 09:05:08 51°9.172 2°37.033 231.5 0.7 270 11.2
2005-07-14 09:05:12 51°9.172 2°37.032 231.3 0.7 269 11.2
2005-07-14 09:05:18 51°9.172 2°37.03 231.2 0.7 269 11.2
2005-07-14 09:05:23 51°9.172 2°37.028 231.1 0.7 269 11.2
2005-07-14 09:05:27 51°9.172 2°37.027 230.9 0.8 271 11.2
2005-07-14 09:05:32 51°9.172 2°37.025 230.9 0.8 271 11.1
2005-07-14 09:05:37 51°9.172 2°37.023 230.8 0.8 271 11.1
2005-07-14 09:05:42 51°9.172 2°37.022 230.7 0.8 272 11.1
2005-07-14 09:05:48 51°9.172 2°37.02 230.6 0.8 272 11.1
2005-07-14 09:05:52 51°9.172 2°37.018 230.5 0.8 269 11.2
2005-07-14 09:05:57 51°9.172 2°37.016 230.3 0.8 269 11.2
2005-07-14 09:06:02 51°9.172 2°37.015 230.2 0.8 269 11.1
2005-07-14 09:06:07 51°9.172 2°37.013 230.1 0.8 271 11.2
2005-07-14 09:06:12 51°9.172 2°37.011 230 0.8 268 11.2
2005-07-14 09:06:18 51°9.172 2°37.009 229.8 0.8 272 11.2
2005-07-14 09:06:22 51°9.172 2°37.008 229.6 0.8 272 11.2
2005-07-14 09:06:28 51°9.172 2°37.006 229.4 0.8 272 11.2
2005-07-14 09:06:32 51°9.172 2°37.004 229.3 0.8 264 11.3
2005-07-14 09:06:38 51°9.172 2°37.002 229.2 0.8 264 11.3
2005-07-14 09:06:42 51°9.172 2°37 229 0.8 267 11.3
2005-07-14 09:06:48 51°9.172 2°36.999 228.9 0.8 267 11.3
2005-07-14 09:06:52 51°9.172 2°36.997 228.6 0.8 267 11.3
2005-07-14 09:06:58 51°9.172 2°36.995 228.4 0.8 268 11.3
2005-07-14 09:07:02 51°9.172 2°36.993 228.2 0.8 268 11.3
2005-07-14 09:07:08 51°9.172 2°36.991 227.9 0.8 271 11.3
2005-07-14 09:07:13 51°9.172 2°36.99 227.8 0.8 268 11.3
2005-07-14 09:07:18 51°9.172 2°36.988 227.5 0.8 270 11.2
2005-07-14 09:07:23 51°9.172 2°36.986 227.2 0.8 270 11.2
2005-07-14 09:07:27 51°9.172 2°36.984 227.1 0.8 269 11.3
2005-07-14 09:07:32 51°9.173 2°36.983 226.9 0.8 269 11.2
2005-07-14 09:07:38 51°9.173 2°36.981 226.6 0.8 269 11.2
2005-07-14 09:07:42 51°9.173 2°36.979 226.4 0.8 270 11.3
2005-07-14 09:07:46 51°9.173 2°36.978 226.2 0.8 267 11.3
2005-07-14 09:07:52 51°9.173 2°36.975 226.1 0.8 268 11.3
2005-07-14 09:07:58 51°9.173 2°36.973 225.8 0.8 268 11.3
2005-07-14 09:08:01 51°9.173 2°36.972 225.7 0.8 268 11.3
2005-07-14 09:08:08 51°9.173 2°36.97 225.4 0.8 270 11.3
2005-07-14 09:08:12 51°9.173 2°36.968 225.2 0.8 270 11.3
2005-07-14 09:08:18 51°9.172 2°36.966 225 0.8 264 11.4
2005-07-14 09:08:22 51°9.172 2°36.964 224.9 0.8 264 11.3
2005-07-14 09:08:28 51°9.172 2°36.962 224.7 0.8 264 11.3
2005-07-14 09:08:33 51°9.172 2°36.96 224.4 0.8 264 11.3
2005-07-14 09:08:37 51°9.172 2°36.959 224.2 0.9 265 11.4
2005-07-14 09:08:41 51°9.172 2°36.957 224 0.8 262 11.3
2005-07-14 09:08:48 51°9.172 2°36.955 223.7 0.8 262 11.3
2005-07-14 09:08:52 51°9.172 2°36.953 223.6 0.8 266 11.4
2005-07-14 09:08:58 51°9.172 2°36.951 223.4 0.9 264 11.4
2005-07-14 09:09:02 51°9.172 2°36.949 223.1 0.9 264 11.4
2005-07-14 09:09:08 51°9.172 2°36.947 222.8 0.9 266 11.4
2005-07-14 09:09:12 51°9.172 2°36.945 222.6 0.9 262 11.4
2005-07-14 09:09:18 51°9.172 2°36.943 222.2 0.9 262 11.3
2005-07-14 09:09:22 51°9.172 2°36.942 221.8 0.8 262 11.4
2005-07-14 09:09:27 51°9.172 2°36.939 221.5 0.9 264 11.5
2005-07-14 09:09:32 51°9.172 2°36.938 221.2 0.9 263 11.4
2005-07-14 09:09:37 51°9.171 2°36.936 220.8 0.9 264 11.4
2005-07-14 09:09:42 51°9.171 2°36.934 220.5 0.9 264 11.4
2005-07-14 09:09:48 51°9.171 2°36.932 220.1 0.9 264 11.4
2005-07-14 09:09:52 51°9.171 2°36.93 219.7 0.9 264 11.5
2005-07-14 09:09:58 51°9.171 2°36.928 219.3 0.9 261 11.4
2005-07-14 09:10:01 51°9.171 2°36.926 219 0.9 261 11.4
2005-07-14 09:10:08 51°9.171 2°36.924 218.5 0.9 259 11.5
2005-07-14 09:10:12 51°9.171 2°36.922 218.2 0.9 259 11.5
2005-07-14 09:10:18 51°9.171 2°36.92 217.7 0.9 259 11.5
2005-07-14 09:10:21 51°9.171 2°36.919 217.3 0.9 265 11.5
2005-07-14 09:10:28 51°9.17 2°36.916 216.9 0.9 266 11.5
2005-07-14 09:10:32 51°9.17 2°36.915 216.4 0.9 266 11.5
2005-07-14 09:10:38 51°9.17 2°36.912 215.9 0.9 266 11.5
2005-07-14 09:10:42 51°9.17 2°36.911 215.4 0.9 262 11.4
2005-07-14 09:10:48 51°9.17 2°36.909 214.9 0.9 262 11.4
2005-07-14 09:10:52 51°9.17 2°36.907 214.3 0.9 263 11.5
2005-07-14 09:10:58 51°9.169 2°36.905 214 0.9 263 11.5
2005-07-14 09:11:02 51°9.169 2°36.903 213.4 0.9 263 11.4
2005-07-14 09:11:08 51°9.169 2°36.901 212.9 0.9 260 11.5
2005-07-14 09:11:13 51°9.169 2°36.899 212.3 0.9 260 11.5
2005-07-14 09:11:18 51°9.169 2°36.897 211.7 0.9 263 11.5
2005-07-14 09:11:21 51°9.169 2°36.896 211.2 0.9 263 11.5
2005-07-14 09:11:28 51°9.169 2°36.893 210.4 0.9 262 11.5
2005-07-14 09:11:32 51°9.169 2°36.891 209.9 0.9 261 11.5
2005-07-14 09:11:38 51°9.168 2°36.889 209.3 0.9 261 11.5